WetterOnline ( https://www.wetteronline.de )

Wetter aktuell Riethnordhausen

Aktuelles Wetter: Harzgerode (405m)

6-stündlich | Neueste Meldungen
Ortszeit Temperatur Wetter
Mo, 06.12. 1:00 0.1° C Nebel
So, 05.12. 19:00 -0.7° C bedeckt
So, 05.12. 13:00 3.5° C wolkig
So, 05.12. 7:00 0.6° C wolkenlos
So, 05.12. 1:00 1.0° C bewölkt
Sa, 04.12. 19:00 0.3° C bedeckt
Sa, 04.12. 13:00 1.0° C bedeckt
Sa, 04.12. 7:00 -0.1° C bedeckt
Ortszeit Temperatur Wetter
Mo, 06.12. 1:30 0.1° C Nebel
Mo, 06.12. 1:20 0.1° C Nebel
Mo, 06.12. 1:10 0.1° C Nebel
Mo, 06.12. 1:00 0.1° C Nebel
Mo, 06.12. 0:50 0.1° C Nebel
Mo, 06.12. 0:40 0.1° C Nebel
Mo, 06.12. 0:30 0.1° C Nebel
Mo, 06.12. 0:00 0.2° C Nebel
So, 05.12. 23:30 0.1° C Nebel
So, 05.12. 23:00 0.0° C Nebel
So, 05.12. 22:30 0.0° C Nebel
Ortszeit Relative Feuchte Sichtweite
Mo, 06.12. 1:00 100% 100 m
So, 05.12. 19:00 91% 40 km
So, 05.12. 13:00 75% 55 km
So, 05.12. 7:00 94% 30 km
So, 05.12. 1:00 95% 23 km
Sa, 04.12. 19:00 95% 17 km
Sa, 04.12. 13:00 88% 40 km
Sa, 04.12. 7:00 94% 20 km
Ortszeit Relative Feuchte Sichtweite
Mo, 06.12. 1:30 100% 100 m
Mo, 06.12. 1:20 100% -
Mo, 06.12. 1:10 100% -
Mo, 06.12. 1:00 100% 100 m
Mo, 06.12. 0:50 100% -
Mo, 06.12. 0:40 100% -
Mo, 06.12. 0:30 100% <100 m
Mo, 06.12. 0:00 100% <100 m
So, 05.12. 23:30 100% <100 m
So, 05.12. 23:00 99% 100 m
So, 05.12. 22:30 99% 100 m
Ortszeit Niederschlagsmenge Niederschlagsart
Mo, 06.12. 1:00 0.0 l/m2 in 6 Std. -
So, 05.12. 19:00 0.0 l/m2 in 12 Std. -
So, 05.12. 13:00 0.0 l/m2 in 6 Std. -
So, 05.12. 7:00 0.5 l/m2 in 12 Std. Regen
So, 05.12. 1:00 0.5 l/m2 in 6 Std. Schnee, Regen
Sa, 04.12. 19:00 0.0 l/m2 in 12 Std. -
Sa, 04.12. 13:00 0.0 l/m2 in 6 Std. -
Sa, 04.12. 7:00 0.6 l/m2 in 12 Std. Schnee, Regen
Ortszeit Niederschlagsmenge Niederschlagsart
Mo, 06.12. 1:30 0.0 l/m2 in 1 Std. -
Mo, 06.12. 1:20 keine Meldung -
Mo, 06.12. 1:10 keine Meldung -
Mo, 06.12. 1:00 0.0 l/m2 in 1 Std. -
Mo, 06.12. 0:50 keine Meldung -
Mo, 06.12. 0:40 keine Meldung -
Mo, 06.12. 0:30 0.0 l/m2 in 1 Std. -
Mo, 06.12. 0:00 0.0 l/m2 in 1 Std. -
So, 05.12. 23:30 0.0 l/m2 in 1 Std. -
So, 05.12. 23:00 0.0 l/m2 in 1 Std. -
So, 05.12. 22:30 0.0 l/m2 in 1 Std. -
Ortszeit Stärke Spitze Richtung
km/h Bft. km/h Grad Sektor
Mo, 06.12. 1:00 7 2 14 360° N
So, 05.12. 19:00 6 1 20 240° SW
So, 05.12. 13:00 14 3 29 240° SW
So, 05.12. 7:00 11 2 32 250° W
So, 05.12. 1:00 11 2 25 240° SW
Sa, 04.12. 19:00 9 2 22 150° SO
Sa, 04.12. 13:00 13 3 24 230° SW
Sa, 04.12. 7:00 13 3 48 220° SW
Ortszeit Stärke Spitze Richtung
km/h Bft. km/h Grad Sektor
Mo, 06.12. 1:30 7 2 11 360° N
Mo, 06.12. 1:20 7 2 - 360° N
Mo, 06.12. 1:10 7 2 - 360° N
Mo, 06.12. 1:00 7 2 7 360° N
Mo, 06.12. 0:50 7 2 - 360° N
Mo, 06.12. 0:40 6 1 - 360° N
Mo, 06.12. 0:30 6 1 7 340° N
Mo, 06.12. 0:00 7 2 11 360° N
So, 05.12. 23:30 4 1 11 30° NO
So, 05.12. 23:00 7 2 14 20° N
So, 05.12. 22:30 7 2 14 30° NO
Ortszeit Untergrenze Bedeckung Gattung
total tief tief mittel hoch
Mo, 06.12. 1:00 <30 m 8/8 0/8 - - -
So, 05.12. 19:00 5100 m 8/8 8/8 - - -
So, 05.12. 13:00 480 m 5/8 5/8 - - -
So, 05.12. 7:00 - 0/8 0/8 - - -
So, 05.12. 1:00 300 m 7/8 7/8 - - -
Sa, 04.12. 19:00 510 m 8/8 8/8 - - -
Sa, 04.12. 13:00 210 m 8/8 8/8 - - -
Sa, 04.12. 7:00 180 m 8/8 8/8 - - -
Ortszeit Bedeckungsgrad in Achtel und Wolkenuntergrenze
Mo, 06.12. 1:30 8(<30m)
Mo, 06.12. 1:20 8(<30m)
Mo, 06.12. 1:10 8(<30m)
Mo, 06.12. 1:00 8(<30m)
Mo, 06.12. 0:50 8(<30m)
Mo, 06.12. 0:40 8(<30m)
Mo, 06.12. 0:30 8(30m)
Mo, 06.12. 0:00 9 9 9
So, 05.12. 23:30 8(<30m)
So, 05.12. 23:00 8(<30m)
So, 05.12. 22:30 7(30m) 8(1350m)
Ortszeit Luftdruck NN (hPa) Tendenz (hPa in 3 Std.)
Mo, 06.12. 1:00 1011 + 0,9
So, 05.12. 19:00 1008 + 1,6
So, 05.12. 13:00 1005 + 1,3
So, 05.12. 7:00 1001 + 1,3
So, 05.12. 1:00 999 + 2,2
Sa, 04.12. 19:00 996 - 0,7
Sa, 04.12. 13:00 999 - 1,8
Sa, 04.12. 7:00 1001 - 1,3
Ortszeit Luftdruck NN (hPa) Tendenz (hPa in 3 Std.)
Mo, 06.12. 1:30 1012 + 0,9
Mo, 06.12. 1:20 1012 keine Meldung
Mo, 06.12. 1:10 1012 keine Meldung
Mo, 06.12. 1:00 1011 + 0,9
Mo, 06.12. 0:50 1011 keine Meldung
Mo, 06.12. 0:40 1011 keine Meldung
Mo, 06.12. 0:30 1011 + 1,2
Mo, 06.12. 0:00 1011 + 1,4
So, 05.12. 23:30 1011 + 1,6
So, 05.12. 23:00 1011 + 1,6
So, 05.12. 22:30 1011 + 1,9
Ortszeit Schneehöhe (cm)
Mo, 06.12. 1:00 0
So, 05.12. 19:00 0
So, 05.12. 13:00 0
So, 05.12. 7:00 0
So, 05.12. 1:00 0
Sa, 04.12. 19:00 0
Sa, 04.12. 13:00 0
Sa, 04.12. 7:00 0
Ortszeit Schneehöhe (cm)
Mo, 06.12. 1:30 0
Mo, 06.12. 1:20 0
Mo, 06.12. 1:10 0
Mo, 06.12. 1:00 0
Mo, 06.12. 0:50 0
Mo, 06.12. 0:40 0
Mo, 06.12. 0:30 0
Mo, 06.12. 0:00 0
So, 05.12. 23:30 0
So, 05.12. 23:00 0
So, 05.12. 22:30 0
Link zu dieser Seite / Seite empfehlen

Das Wetter in ...